createdAt,value
2019-03-26T00:01:45.836Z,3.50
2019-03-26T00:04:17.166Z,3.50
2019-03-26T00:06:47.565Z,3.60
2019-03-26T00:09:17.909Z,3.60
2019-03-26T00:11:48.316Z,3.70
2019-03-26T00:14:18.645Z,3.70
2019-03-26T00:16:49.033Z,3.70
2019-03-26T00:19:19.389Z,3.70
2019-03-26T00:21:49.767Z,3.60
2019-03-26T00:24:20.129Z,3.40
2019-03-26T00:26:50.579Z,3.30
2019-03-26T00:29:20.929Z,3.10
2019-03-26T00:31:51.317Z,3.00
2019-03-26T00:34:21.676Z,2.90
2019-03-26T00:36:52.078Z,2.80
2019-03-26T00:39:22.420Z,2.80
2019-03-26T00:41:52.810Z,2.70
2019-03-26T00:44:23.284Z,2.60
2019-03-26T00:46:53.683Z,2.50
2019-03-26T00:49:24.039Z,2.50
2019-03-26T00:51:54.426Z,2.40
2019-03-26T00:54:25.162Z,2.30
2019-03-26T00:56:55.642Z,2.30
2019-03-26T00:59:26.004Z,2.30
2019-03-26T01:01:56.535Z,2.30
2019-03-26T01:04:32.746Z,2.20
2019-03-26T01:07:00.067Z,2.20
2019-03-26T01:09:30.436Z,2.10
2019-03-26T01:12:00.829Z,2.10
2019-03-26T01:14:31.193Z,2.10
2019-03-26T01:17:01.588Z,2.10
2019-03-26T01:19:31.946Z,2.00
2019-03-26T01:22:02.336Z,2.00
2019-03-26T01:24:32.698Z,1.90
2019-03-26T01:27:03.089Z,1.90
2019-03-26T01:29:34.422Z,1.90
2019-03-26T01:32:05.485Z,1.90
2019-03-26T01:34:45.408Z,1.80
2019-03-26T01:37:07.922Z,1.80
2019-03-26T01:39:38.290Z,1.80
2019-03-26T01:42:08.673Z,1.70
2019-03-26T01:44:39.031Z,1.70
2019-03-26T01:47:09.426Z,1.70
2019-03-26T01:49:39.855Z,1.60
2019-03-26T01:52:10.173Z,1.60
2019-03-26T01:54:40.536Z,1.60
2019-03-26T01:57:10.918Z,1.60
2019-03-26T01:59:41.288Z,1.60
2019-03-26T02:02:11.682Z,1.60
2019-03-26T02:04:42.042Z,1.60
2019-03-26T02:07:12.434Z,1.60
2019-03-26T02:09:42.797Z,1.60
2019-03-26T02:12:13.191Z,1.60
2019-03-26T02:14:43.553Z,1.70
2019-03-26T02:17:13.943Z,1.70
2019-03-26T02:19:44.308Z,1.80
2019-03-26T02:22:14.701Z,1.70
2019-03-26T02:24:45.058Z,1.80
2019-03-26T02:27:15.444Z,1.80
2019-03-26T02:29:45.797Z,1.80
2019-03-26T02:32:16.192Z,1.80
2019-03-26T02:34:46.553Z,1.80
2019-03-26T02:37:16.950Z,1.80
2019-03-26T02:39:47.306Z,1.80
2019-03-26T02:42:17.704Z,1.80
2019-03-26T02:44:49.047Z,1.90
2019-03-26T02:47:19.431Z,1.90
2019-03-26T02:49:49.798Z,1.90
2019-03-26T02:52:20.187Z,1.90
2019-03-26T02:54:50.553Z,2.00
2019-03-26T02:57:20.930Z,2.00
2019-03-26T02:59:51.301Z,2.00
2019-03-26T03:02:21.873Z,2.00
2019-03-26T03:04:52.218Z,2.00
2019-03-26T03:07:22.605Z,2.00
2019-03-26T03:09:52.959Z,2.00
2019-03-26T03:12:23.346Z,2.00
2019-03-26T03:14:53.710Z,2.00
2019-03-26T03:17:24.105Z,2.00
2019-03-26T03:19:54.469Z,2.00
2019-03-26T03:22:24.849Z,1.90
2019-03-26T03:24:56.196Z,1.90
2019-03-26T03:27:26.584Z,1.90
2019-03-26T03:29:57.019Z,2.00
2019-03-26T03:32:27.401Z,1.90
2019-03-26T03:34:57.806Z,1.90
2019-03-26T03:37:29.768Z,2.00
2019-03-26T03:40:00.469Z,2.00
2019-03-26T03:42:30.943Z,1.90
2019-03-26T03:45:01.303Z,1.90
2019-03-26T03:47:33.796Z,2.00
2019-03-26T03:50:05.570Z,2.00
2019-03-26T03:52:41.970Z,2.10
2019-03-26T03:55:12.863Z,2.10
2019-03-26T03:57:45.392Z,2.10
2019-03-26T04:00:37.080Z,2.10
2019-03-26T04:03:09.075Z,2.10
2019-03-26T04:05:39.742Z,2.10
2019-03-26T04:08:10.129Z,2.10
2019-03-26T04:10:40.489Z,2.10
2019-03-26T04:13:10.871Z,2.10
2019-03-26T04:15:41.239Z,2.10
2019-03-26T04:18:11.619Z,2.10
2019-03-26T04:20:41.974Z,2.10
2019-03-26T04:23:12.343Z,2.10
2019-03-26T04:25:42.706Z,2.10
2019-03-26T04:28:13.098Z,2.00
2019-03-26T04:30:43.460Z,2.10
2019-03-26T04:33:13.848Z,2.10
2019-03-26T04:35:44.236Z,2.10
2019-03-26T04:38:14.596Z,2.20
2019-03-26T04:40:45.048Z,2.20
2019-03-26T04:43:18.978Z,2.30
2019-03-26T04:45:48.480Z,2.30
2019-03-26T04:48:18.841Z,2.30
2019-03-26T04:50:49.372Z,2.40
2019-03-26T04:53:19.752Z,2.50
2019-03-26T04:55:50.109Z,2.60
2019-03-26T04:58:20.495Z,2.70
2019-03-26T05:00:51.085Z,2.90
2019-03-26T05:03:21.492Z,3.00
2019-03-26T05:05:51.865Z,3.20
2019-03-26T05:08:22.267Z,3.30
2019-03-26T05:10:52.620Z,3.40
2019-03-26T05:13:23.027Z,3.40
2019-03-26T05:15:53.416Z,3.40
2019-03-26T05:18:23.806Z,3.50
2019-03-26T05:20:54.161Z,3.50
2019-03-26T05:23:24.546Z,3.50
2019-03-26T05:25:54.910Z,3.60
2019-03-26T05:28:25.298Z,3.50
2019-03-26T05:30:55.661Z,3.50
2019-03-26T05:33:26.053Z,3.50
2019-03-26T05:35:56.410Z,3.50
2019-03-26T05:38:26.795Z,3.60
2019-03-26T05:40:57.158Z,3.50
2019-03-26T05:43:27.533Z,3.60
2019-03-26T05:45:57.885Z,3.60
2019-03-26T05:48:28.268Z,3.70
2019-03-26T05:50:58.626Z,3.70
2019-03-26T05:53:28.999Z,3.70
2019-03-26T05:55:59.364Z,3.70
2019-03-26T05:58:29.750Z,3.80
2019-03-26T06:01:00.116Z,3.70
2019-03-26T06:03:30.546Z,3.80
2019-03-26T06:06:00.910Z,3.80
2019-03-26T06:08:31.296Z,3.90
2019-03-26T06:11:01.652Z,4.00
2019-03-26T06:13:32.030Z,4.00
2019-03-26T06:16:02.390Z,4.10
2019-03-26T06:18:32.766Z,4.10
2019-03-26T06:21:03.128Z,4.20
2019-03-26T06:23:33.499Z,4.20
2019-03-26T06:26:03.867Z,4.30
2019-03-26T06:28:34.253Z,4.40
2019-03-26T06:31:04.687Z,4.50
2019-03-26T06:33:35.057Z,4.80
2019-03-26T06:36:05.420Z,4.90
2019-03-26T06:38:35.793Z,5.10
2019-03-26T06:41:06.160Z,5.50
2019-03-26T06:43:36.542Z,5.90
2019-03-26T06:46:06.893Z,6.00
2019-03-26T06:48:37.336Z,6.00
2019-03-26T06:51:07.687Z,5.90
2019-03-26T06:53:39.028Z,5.80
2019-03-26T06:56:09.380Z,5.70
2019-03-26T06:58:39.762Z,5.80
2019-03-26T07:01:10.197Z,5.80
2019-03-26T07:03:40.582Z,5.90
2019-03-26T07:06:10.938Z,5.90
2019-03-26T07:08:41.327Z,6.00
2019-03-26T07:11:11.737Z,6.00
2019-03-26T07:13:42.173Z,6.10
2019-03-26T07:16:12.589Z,6.10
2019-03-26T07:18:42.960Z,6.10
2019-03-26T07:21:13.312Z,6.20
2019-03-26T07:23:43.682Z,6.20
2019-03-26T07:26:14.082Z,6.30
2019-03-26T07:28:44.457Z,6.40
2019-03-26T07:31:14.836Z,6.40
2019-03-26T07:33:45.249Z,6.50
2019-03-26T07:36:15.598Z,6.50
2019-03-26T07:38:45.974Z,6.60
2019-03-26T07:41:16.332Z,6.70
2019-03-26T07:43:46.882Z,6.90
2019-03-26T07:46:17.245Z,7.40
2019-03-26T07:48:47.722Z,8.00
2019-03-26T07:51:18.093Z,8.20
2019-03-26T07:53:48.457Z,8.30
2019-03-26T07:56:18.842Z,8.80
2019-03-26T07:58:49.205Z,10.40
2019-03-26T08:01:19.592Z,11.00
2019-03-26T08:03:49.954Z,11.30
2019-03-26T08:06:20.353Z,11.60
2019-03-26T08:08:50.712Z,12.10
2019-03-26T08:11:21.092Z,14.20
2019-03-26T08:13:51.474Z,16.20
2019-03-26T08:16:21.868Z,16.70
2019-03-26T08:18:52.228Z,16.20
2019-03-26T08:21:23.579Z,15.80
2019-03-26T08:23:53.978Z,15.50
2019-03-26T08:26:24.369Z,15.20
2019-03-26T08:28:55.802Z,15.30
2019-03-26T08:31:26.184Z,16.60
2019-03-26T08:33:56.540Z,18.40
2019-03-26T08:36:27.306Z,18.20
2019-03-26T08:38:57.663Z,16.80
2019-03-26T08:41:28.055Z,15.30
2019-03-26T08:43:58.420Z,13.90
2019-03-26T08:46:28.803Z,12.50
2019-03-26T08:48:59.177Z,11.40
2019-03-26T08:51:29.564Z,11.00
2019-03-26T08:53:59.927Z,10.60
2019-03-26T08:56:31.694Z,10.30
2019-03-26T08:59:01.974Z,10.20
2019-03-26T09:01:32.525Z,10.00
2019-03-26T09:04:02.879Z,9.90
2019-03-26T09:06:34.224Z,10.00
2019-03-26T09:09:07.100Z,10.60
2019-03-26T09:11:37.558Z,12.20
2019-03-26T09:14:07.923Z,13.30
2019-03-26T09:16:38.318Z,13.10
2019-03-26T09:19:08.691Z,15.10
2019-03-26T09:21:39.122Z,16.40
2019-03-26T09:24:10.463Z,16.40
2019-03-26T09:26:40.858Z,15.90
2019-03-26T09:29:11.224Z,14.50
2019-03-26T09:31:41.614Z,13.60
2019-03-26T09:34:11.978Z,13.10
2019-03-26T09:36:42.363Z,12.70
2019-03-26T09:39:12.815Z,12.40
2019-03-26T09:41:43.261Z,12.20
2019-03-26T09:44:13.618Z,12.10
2019-03-26T09:46:44.111Z,12.10
2019-03-26T09:49:14.477Z,12.20
2019-03-26T09:51:44.871Z,12.20
2019-03-26T09:54:15.232Z,12.40
2019-03-26T09:56:45.626Z,12.10
2019-03-26T09:59:16.023Z,11.60
2019-03-26T10:01:50.754Z,12.00
2019-03-26T10:04:27.319Z,14.00
2019-03-26T10:22:08.273Z,14.90
2019-03-26T10:24:40.195Z,15.00
2019-03-26T10:27:10.630Z,14.90
2019-03-26T10:29:43.854Z,14.70
2019-03-26T10:32:14.251Z,14.00
2019-03-26T10:34:44.700Z,13.40
2019-03-26T10:37:15.117Z,12.90
2019-03-26T10:39:45.544Z,12.20
2019-03-26T10:42:16.061Z,11.70
2019-03-26T10:44:46.431Z,11.50
2019-03-26T10:47:16.835Z,11.30
2019-03-26T10:49:47.286Z,11.30
2019-03-26T10:52:17.688Z,11.60
2019-03-26T10:54:56.037Z,12.00
2019-03-26T10:57:26.425Z,12.50
2019-03-26T10:59:56.867Z,13.20
2019-03-26T11:02:27.475Z,14.10
2019-03-26T11:04:58.125Z,14.60
2019-03-26T11:07:28.591Z,14.50
2019-03-26T11:09:58.960Z,15.30
2019-03-26T11:12:29.360Z,15.90
2019-03-26T11:14:59.726Z,14.80
2019-03-26T11:17:30.105Z,13.70
2019-03-26T11:20:00.476Z,12.60
2019-03-26T11:22:31.817Z,11.90
2019-03-26T11:25:02.565Z,11.40
2019-03-26T11:27:33.914Z,11.10
2019-03-26T11:30:07.816Z,10.90
2019-03-26T11:32:38.555Z,11.30
2019-03-26T11:35:10.173Z,11.50
2019-03-26T11:37:40.754Z,11.50
2019-03-26T11:40:11.382Z,11.40
2019-03-26T11:42:41.828Z,11.40
2019-03-26T11:45:12.723Z,11.30
2019-03-26T11:47:43.112Z,11.00
2019-03-26T11:50:15.002Z,11.00
2019-03-26T11:52:45.403Z,11.00
2019-03-26T11:55:35.871Z,11.10
2019-03-26T11:58:06.249Z,12.40
2019-03-26T12:00:38.530Z,13.90
2019-03-26T12:03:08.965Z,14.20
2019-03-26T12:05:39.427Z,14.20
2019-03-26T12:08:09.880Z,14.10
2019-03-26T12:10:40.240Z,14.20
2019-03-26T12:13:10.607Z,14.00
2019-03-26T12:15:40.996Z,12.90
2019-03-26T12:18:11.425Z,12.30
2019-03-26T12:20:41.823Z,11.60
2019-03-26T12:23:12.225Z,11.10
2019-03-26T12:25:42.614Z,10.70
2019-03-26T12:28:13.037Z,10.40
2019-03-26T12:30:43.723Z,10.00
2019-03-26T12:33:14.080Z,9.70
2019-03-26T12:35:44.527Z,9.60
2019-03-26T12:38:18.060Z,9.40
2019-03-26T12:40:48.803Z,9.20
2019-03-26T12:43:19.401Z,8.90
2019-03-26T12:45:51.183Z,8.80
2019-03-26T12:48:21.536Z,8.60
2019-03-26T12:50:51.937Z,8.40
2019-03-26T12:53:22.312Z,8.30
2019-03-26T12:55:52.776Z,8.20
2019-03-26T12:58:31.715Z,8.10
2019-03-26T13:00:56.198Z,8.20
2019-03-26T13:03:26.630Z,8.10
2019-03-26T13:05:57.013Z,8.10
2019-03-26T13:08:27.380Z,8.10
2019-03-26T13:10:57.763Z,8.30
2019-03-26T13:13:28.133Z,8.30
2019-03-26T13:15:58.905Z,8.30
2019-03-26T13:18:29.266Z,8.10
2019-03-26T13:20:59.658Z,8.10
2019-03-26T13:23:30.046Z,8.00
2019-03-26T13:26:00.503Z,7.90
2019-03-26T13:28:30.875Z,7.90
2019-03-26T13:31:01.245Z,8.10
2019-03-26T13:33:31.634Z,8.30
2019-03-26T13:36:03.157Z,8.70
2019-03-26T13:38:33.534Z,9.00
2019-03-26T13:41:04.991Z,9.20
2019-03-26T13:43:35.347Z,9.30
2019-03-26T13:46:05.728Z,9.50
2019-03-26T13:48:36.144Z,10.30
2019-03-26T13:51:06.546Z,12.40
2019-03-26T13:53:36.911Z,14.80
2019-03-26T13:56:07.314Z,16.50
2019-03-26T13:58:37.673Z,15.50
2019-03-26T14:01:08.069Z,14.00
2019-03-26T14:03:38.431Z,13.00
2019-03-26T14:06:08.843Z,12.60
2019-03-26T14:08:39.224Z,11.80
2019-03-26T14:11:09.614Z,11.40
2019-03-26T14:13:40.050Z,10.90
2019-03-26T14:16:10.455Z,10.80
2019-03-26T14:18:40.826Z,10.50
2019-03-26T14:21:11.377Z,10.30
2019-03-26T14:23:41.825Z,10.10
2019-03-26T14:26:12.249Z,9.90
2019-03-26T14:28:42.629Z,9.70
2019-03-26T14:31:13.146Z,9.60
2019-03-26T14:33:43.511Z,9.50
2019-03-26T14:36:25.834Z,9.50
2019-03-26T14:39:01.949Z,9.40
2019-03-26T14:44:21.219Z,9.30
2019-03-26T14:56:15.055Z,8.90
2019-03-26T15:07:54.260Z,9.60
2019-03-26T15:10:25.586Z,9.70
2019-03-26T15:12:55.991Z,9.70
2019-03-26T15:15:26.349Z,9.50
2019-03-26T15:17:56.746Z,9.50
2019-03-26T15:20:27.110Z,9.50
2019-03-26T15:22:58.234Z,9.40
2019-03-26T15:25:28.728Z,9.50
2019-03-26T15:27:59.100Z,9.30
2019-03-26T15:30:29.487Z,9.10
2019-03-26T15:32:59.867Z,8.90
2019-03-26T15:35:30.246Z,8.80
2019-03-26T15:38:00.637Z,8.70
2019-03-26T15:40:30.986Z,8.60
2019-03-26T15:43:01.359Z,8.60
2019-03-26T15:45:32.857Z,8.50
2019-03-26T15:48:03.237Z,8.50
2019-03-26T15:50:45.555Z,8.50
2019-03-26T15:53:16.353Z,8.40
2019-03-26T15:55:47.750Z,8.40
2019-03-26T15:58:18.141Z,8.30
2019-03-26T16:00:51.369Z,8.30
2019-03-26T16:03:22.571Z,8.40
2019-03-26T16:05:53.204Z,8.50
2019-03-26T16:08:23.582Z,8.60
2019-03-26T16:10:53.934Z,8.70
2019-03-26T16:13:24.318Z,8.70
2019-03-26T16:15:54.739Z,8.70
2019-03-26T16:18:25.108Z,8.60
2019-03-26T16:20:55.563Z,8.40
2019-03-26T16:23:25.929Z,8.30
2019-03-26T16:25:56.468Z,8.20
2019-03-26T16:28:26.850Z,8.10
2019-03-26T16:30:57.296Z,8.00
2019-03-26T16:33:27.605Z,8.00
2019-03-26T16:35:57.987Z,7.80
2019-03-26T16:38:28.424Z,7.80
2019-03-26T16:41:07.585Z,7.60
2019-03-26T16:43:39.754Z,7.60
2019-03-26T16:46:10.141Z,7.50
2019-03-26T16:48:41.583Z,7.40
2019-03-26T16:51:11.944Z,7.60
2019-03-26T16:53:42.327Z,7.60
2019-03-26T16:56:12.706Z,7.60
2019-03-26T16:58:43.095Z,7.60
2019-03-26T17:01:14.428Z,7.70
2019-03-26T17:03:44.820Z,7.70
2019-03-26T17:06:15.251Z,7.70
2019-03-26T17:08:45.634Z,7.70
2019-03-26T17:11:15.985Z,7.60
2019-03-26T17:13:46.377Z,7.60
2019-03-26T17:16:16.816Z,7.60
2019-03-26T17:18:48.270Z,7.50
2019-03-26T17:21:18.685Z,7.40
2019-03-26T17:23:48.998Z,7.40
2019-03-26T17:26:19.937Z,7.30
2019-03-26T17:28:51.293Z,7.30
2019-03-26T17:31:22.232Z,7.20
2019-03-26T17:33:52.607Z,7.20
2019-03-26T17:36:23.051Z,7.20
2019-03-26T17:38:53.495Z,7.10
2019-03-26T17:41:23.853Z,7.10
2019-03-26T17:43:55.187Z,6.90
2019-03-26T17:46:25.590Z,6.90
2019-03-26T17:48:55.991Z,6.80
2019-03-26T17:51:26.386Z,6.70
2019-03-26T17:53:56.798Z,6.60
2019-03-26T17:56:27.145Z,6.60
2019-03-26T17:58:57.547Z,6.50
2019-03-26T18:01:28.014Z,6.50
2019-03-26T18:03:58.386Z,6.40
2019-03-26T18:06:28.776Z,6.40
2019-03-26T18:09:00.129Z,6.40
2019-03-26T18:11:30.533Z,6.40
2019-03-26T18:14:00.985Z,6.40
2019-03-26T18:16:31.447Z,6.50
2019-03-26T18:19:01.847Z,6.60
2019-03-26T18:21:32.208Z,6.60
2019-03-26T18:24:02.581Z,6.60
2019-03-26T18:26:45.553Z,6.60
2019-03-26T18:29:15.914Z,6.50
2019-03-26T18:31:46.305Z,6.50
2019-03-26T18:34:16.679Z,6.60
2019-03-26T18:36:47.063Z,6.50
2019-03-26T18:39:17.409Z,6.50
2019-03-26T18:41:47.800Z,6.60
2019-03-26T18:44:18.174Z,6.60
2019-03-26T18:46:48.565Z,6.70
2019-03-26T18:49:18.953Z,6.70
2019-03-26T18:51:49.350Z,6.80
2019-03-26T18:54:19.815Z,6.70
2019-03-26T18:56:50.230Z,6.70
2019-03-26T18:59:20.659Z,6.70
2019-03-26T19:18:14.128Z,6.60
2019-03-26T20:15:46.752Z,6.20
2019-03-26T20:18:18.435Z,6.30
2019-03-26T20:20:48.818Z,6.30
2019-03-26T20:23:19.190Z,6.20
2019-03-26T20:25:52.553Z,6.00
2019-03-26T20:28:22.931Z,6.20
2019-03-26T20:30:53.378Z,6.20
2019-03-26T20:33:23.740Z,6.20
2019-03-26T20:35:55.166Z,6.20
2019-03-26T20:38:25.551Z,6.10
2019-03-26T20:40:56.000Z,6.20
2019-03-26T20:43:36.712Z,6.20
2019-03-26T20:46:00.094Z,6.10
2019-03-26T20:48:30.911Z,6.10
2019-03-26T20:51:06.989Z,6.20
2019-03-26T20:53:42.841Z,6.10
2019-03-26T20:56:13.376Z,6.10
2019-03-26T20:58:44.448Z,6.10
2019-03-26T21:01:18.087Z,6.00
2019-03-26T21:06:56.536Z,5.90
2019-03-26T21:12:23.181Z,5.80
2019-03-26T22:00:55.313Z,4.70
2019-03-26T22:03:26.801Z,4.60
2019-03-26T22:06:02.708Z,4.50
2019-03-26T22:11:27.981Z,4.40
2019-03-26T22:16:56.297Z,4.30
2019-03-26T22:19:28.856Z,4.20
2019-03-26T22:22:03.280Z,4.20
2019-03-26T22:24:34.821Z,4.10
2019-03-26T22:27:11.182Z,4.10
2019-03-26T22:29:45.510Z,4.10
2019-03-26T22:35:06.740Z,4.10
2019-03-26T22:38:03.505Z,4.10
2019-03-26T22:52:11.491Z,3.90
2019-03-26T23:08:54.893Z,4.00
2019-03-26T23:19:27.813Z,3.90
2019-03-26T23:47:14.379Z,3.40
2019-03-26T23:49:49.944Z,3.40
